Time;durP1;ratioP1;P1;durP2;ratioP2;P2;SDS_P1;SDS_P2;PMS_P1;PMS_P2;Temp;Humidity;BMP_temperature;BMP_pressure;BME280_temperature;BME280_humidity;BME280_pressure;Samples;Min_cycle;Max_cycle;Signal;HPM_P1;HPM_P2
2022/04/27 00:00:03;;;;;;;0.13;0.13;;;10.70;92.50;;;;;;4940036;29;20070;-75
2022/04/27 00:02:30;;;;;;;0.10;0.10;;;10.60;92.80;;;;;;4949584;28;20054;-75
2022/04/27 00:04:56;;;;;;;0.00;0.00;;;10.50;93.70;;;;;;4938386;28;20122;-74
2022/04/27 00:07:22;;;;;;;0.00;0.00;;;10.30;94.30;;;;;;4937923;29;20039;-75
2022/04/27 00:09:48;;;;;;;0.22;0.08;;;10.20;94.70;;;;;;4948075;28;20041;-75
2022/04/27 00:12:13;;;;;;;0.55;0.55;;;10.10;95.60;;;;;;4949790;28;20023;-75
2022/04/27 00:14:39;;;;;;;0.30;0.30;;;10.00;96.00;;;;;;4950671;29;20062;-75
2022/04/27 00:17:05;;;;;;;0.70;0.57;;;9.90;96.70;;;;;;4950452;28;20023;-75
2022/04/27 00:19:30;;;;;;;1.92;1.48;;;9.80;97.20;;;;;;4944751;29;20158;-74
2022/04/27 00:21:56;;;;;;;0.30;0.30;;;9.70;97.90;;;;;;4947901;29;20027;-75
2022/04/27 00:24:21;;;;;;;0.10;0.10;;;9.60;98.50;;;;;;4950074;29;20138;-75
2022/04/27 00:26:47;;;;;;;0.03;0.03;;;9.50;98.70;;;;;;4945595;28;20126;-75
2022/04/27 00:29:12;;;;;;;0.70;0.57;;;9.40;99.30;;;;;;4944784;28;20031;-74
2022/04/27 00:31:53;;;;;;;0.00;0.00;;;9.30;99.20;;;;;;4945004;29;20027;-75
2022/04/27 00:34:18;;;;;;;0.63;0.52;;;9.30;99.50;;;;;;4948904;29;20118;-75
2022/04/27 00:36:44;;;;;;;0.05;0.05;;;9.20;99.90;;;;;;4963669;28;20109;-75
2022/04/27 00:39:09;;;;;;;0.00;0.00;;;9.10;99.90;;;;;;4946028;28;20055;-75
2022/04/27 00:41:34;;;;;;;0.38;0.38;;;9.10;99.90;;;;;;4951470;29;20356;-75
2022/04/27 00:44:00;;;;;;;0.00;0.00;;;9.00;99.90;;;;;;4948530;28;20035;-74
2022/04/27 00:46:26;;;;;;;0.10;0.10;;;9.00;99.90;;;;;;4948038;29;20031;-74
2022/04/27 00:48:51;;;;;;;0.00;0.00;;;8.90;99.90;;;;;;4948608;29;20043;-74
2022/04/27 00:51:18;;;;;;;0.10;0.10;;;8.90;99.90;;;;;;4948105;29;20054;-74
2022/04/27 00:53:44;;;;;;;0.20;0.20;;;8.80;99.90;;;;;;4947437;28;20032;-74
2022/04/27 00:56:12;;;;;;;2.20;0.57;;;8.80;99.90;;;;;;4951967;29;20031;-74
2022/04/27 00:58:37;;;;;;;0.10;0.10;;;8.80;99.90;;;;;;4951188;28;20118;-74
2022/04/27 01:01:02;;;;;;;0.15;0.15;;;8.70;99.90;;;;;;4950412;29;20114;-75
2022/04/27 01:03:28;;;;;;;0.70;0.70;;;8.70;99.90;;;;;;4951878;28;20046;-74
2022/04/27 01:05:56;;;;;;;0.10;0.10;;;8.80;99.90;;;;;;4950709;28;20502;-74
2022/04/27 01:08:21;;;;;;;0.63;0.52;;;8.80;99.90;;;;;;4945628;28;20028;-75
2022/04/27 01:10:48;;;;;;;0.00;0.00;;;8.90;99.90;;;;;;4950108;29;20031;-74
2022/04/27 01:13:14;;;;;;;0.00;0.00;;;8.80;99.90;;;;;;4949692;28;20027;-75
2022/04/27 01:15:40;;;;;;;0.03;0.03;;;8.80;99.90;;;;;;4948372;28;20118;-74
2022/04/27 01:18:08;;;;;;;0.10;0.10;;;8.80;99.90;;;;;;4945401;29;20123;-75
2022/04/27 01:20:37;;;;;;;0.20;0.20;;;8.80;99.90;;;;;;4947173;29;20067;-75
2022/04/27 01:23:04;;;;;;;0.63;0.55;;;8.70;99.90;;;;;;4950063;28;20082;-75
2022/04/27 01:25:46;;;;;;;0.10;0.10;;;8.70;99.90;;;;;;4944234;29;20110;-74
2022/04/27 01:28:12;;;;;;;0.13;0.13;;;8.70;99.90;;;;;;4948718;28;20370;-75
2022/04/27 01:30:38;;;;;;;0.13;0.13;;;8.60;99.90;;;;;;4950794;28;20130;-74
2022/04/27 01:33:08;;;;;;;0.20;0.20;;;8.60;99.90;;;;;;4948902;28;20023;-75
2022/04/27 01:35:33;;;;;;;0.10;0.10;;;8.50;99.90;;;;;;4948576;28;20078;-74
2022/04/27 01:38:02;;;;;;;0.00;0.00;;;8.50;99.90;;;;;;4951376;29;20031;-74
2022/04/27 01:40:27;;;;;;;0.85;0.70;;;8.50;99.90;;;;;;4941065;28;20024;-75
2022/04/27 01:42:53;;;;;;;0.13;0.13;;;8.30;99.90;;;;;;4949565;28;20030;-76
2022/04/27 01:45:18;;;;;;;1.13;0.75;;;8.30;99.90;;;;;;4945459;28;20027;-75
2022/04/27 01:47:44;;;;;;;0.10;0.10;;;8.20;99.90;;;;;;4940471;29;20394;-75
2022/04/27 01:50:09;;;;;;;0.47;0.47;;;8.20;99.90;;;;;;4949861;29;20540;-74
2022/04/27 01:55:19;;;;;;;0.17;0.17;;;8.00;99.90;;;;;;4950494;29;20078;-74
2022/04/27 01:57:45;;;;;;;0.00;0.00;;;8.00;99.90;;;;;;4947622;28;20027;-75
2022/04/27 02:00:11;;;;;;;3.83;0.73;;;7.90;99.90;;;;;;4950196;29;20500;-75
2022/04/27 02:02:37;;;;;;;0.00;0.00;;;7.80;99.90;;;;;;4941368;29;20027;-74
2022/04/27 02:05:04;;;;;;;0.20;0.20;;;7.80;99.90;;;;;;4947252;29;20062;-75
2022/04/27 02:07:30;;;;;;;0.10;0.10;;;7.70;99.90;;;;;;4943526;28;20798;-74
2022/04/27 02:09:55;;;;;;;0.15;0.15;;;7.70;99.90;;;;;;4949623;28;20023;-74
2022/04/27 02:12:21;;;;;;;0.10;0.10;;;7.60;99.90;;;;;;4950049;29;20027;-75
2022/04/27 02:14:47;;;;;;;0.32;0.32;;;7.60;99.90;;;;;;4940653;28;20036;-75
2022/04/27 02:17:12;;;;;;;2.28;0.35;;;7.60;99.90;;;;;;4948851;29;20027;-74
2022/04/27 02:19:37;;;;;;;0.00;0.00;;;7.60;99.90;;;;;;4946609;29;20086;-75
2022/04/27 02:22:04;;;;;;;0.00;0.00;;;7.50;99.90;;;;;;4942417;29;20045;-74
2022/04/27 02:24:30;;;;;;;0.17;0.17;;;7.50;99.90;;;;;;4947790;28;20490;-74
2022/04/27 02:26:55;;;;;;;0.20;0.20;;;7.40;99.90;;;;;;4949890;29;20043;-75
2022/04/27 02:29:22;;;;;;;4.95;0.38;;;7.40;99.90;;;;;;4949115;28;20364;-75
2022/04/27 02:31:48;;;;;;;0.00;0.00;;;7.30;99.90;;;;;;4951015;28;20043;-74
2022/04/27 02:34:13;;;;;;;0.85;0.82;;;7.30;99.90;;;;;;4942563;28;20039;-74
2022/04/27 02:36:39;;;;;;;1.20;0.73;;;7.20;99.90;;;;;;4950337;28;20019;-75
2022/04/27 02:39:04;;;;;;;1.05;0.93;;;7.20;99.90;;;;;;4948526;29;20111;-75
2022/04/27 02:41:30;;;;;;;0.00;0.00;;;7.10;99.90;;;;;;4950143;29;20027;-75
2022/04/27 02:43:55;;;;;;;0.20;0.20;;;7.10;99.90;;;;;;4941742;28;20034;-75
2022/04/27 02:46:21;;;;;;;0.10;0.10;;;7.10;99.90;;;;;;4947702;29;20035;-75
2022/04/27 02:51:48;;;;;;;0.00;0.00;;;7.00;99.90;;;;;;4948407;29;20042;-76
2022/04/27 02:54:17;;;;;;;0.52;0.52;;;6.90;99.90;;;;;;4943121;29;20061;-75
2022/04/27 02:56:43;;;;;;;0.10;0.10;;;6.80;99.90;;;;;;4948035;28;20035;-75
2022/04/27 02:59:08;;;;;;;0.20;0.20;;;6.80;99.90;;;;;;4949791;29;20033;-75
2022/04/27 03:01:34;;;;;;;0.13;0.13;;;6.80;99.90;;;;;;4944508;29;20085;-74
2022/04/27 03:04:00;;;;;;;0.40;0.40;;;6.70;99.90;;;;;;4946665;29;20389;-75
2022/04/27 03:06:26;;;;;;;0.35;0.32;;;6.80;99.90;;;;;;4944675;29;20035;-74
2022/04/27 03:08:51;;;;;;;0.17;0.17;;;6.70;99.90;;;;;;4948260;29;20375;-75
2022/04/27 03:11:17;;;;;;;0.30;0.30;;;6.70;99.90;;;;;;4947155;28;20023;-74
2022/04/27 03:13:42;;;;;;;0.95;0.65;;;6.70;99.90;;;;;;4945615;29;20032;-74
2022/04/27 03:16:08;;;;;;;0.00;0.00;;;6.70;99.90;;;;;;4948974;29;20027;-75
2022/04/27 03:18:33;;;;;;;0.68;0.43;;;6.60;99.90;;;;;;4948862;28;20768;-74
2022/04/27 03:20:58;;;;;;;2.63;0.98;;;6.50;99.90;;;;;;4946345;29;20429;-74
2022/04/27 03:23:24;;;;;;;4.68;0.57;;;6.50;99.90;;;;;;4947319;29;20023;-74
2022/04/27 03:25:49;;;;;;;0.03;0.03;;;6.50;99.90;;;;;;4948105;29;20020;-74
2022/04/27 03:28:15;;;;;;;0.88;0.88;;;6.50;99.90;;;;;;4949011;29;20019;-74
2022/04/27 03:30:41;;;;;;;0.00;0.00;;;6.40;99.90;;;;;;4947264;29;20066;-74
2022/04/27 03:33:06;;;;;;;0.47;0.47;;;6.50;99.90;;;;;;4941615;29;20238;-74
2022/04/27 03:35:32;;;;;;;1.73;1.30;;;6.40;99.90;;;;;;4941219;28;20066;-75
2022/04/27 03:37:58;;;;;;;0.20;0.20;;;6.40;99.90;;;;;;4949438;28;20023;-75
2022/04/27 03:40:25;;;;;;;0.50;0.40;;;6.30;99.90;;;;;;4945939;28;20027;-75
2022/04/27 03:42:51;;;;;;;0.08;0.08;;;6.30;99.90;;;;;;4945329;28;20450;-75
2022/04/27 03:45:19;;;;;;;0.20;0.20;;;6.20;99.90;;;;;;4948201;28;20032;-74
2022/04/27 03:47:48;;;;;;;0.00;0.00;;;6.20;99.90;;;;;;4946020;29;20119;-75
2022/04/27 03:50:14;;;;;;;0.90;0.90;;;6.20;99.90;;;;;;4951250;28;20019;-75
2022/04/27 03:52:41;;;;;;;0.30;0.25;;;6.20;99.90;;;;;;4944953;28;20019;-76
2022/04/27 03:55:07;;;;;;;0.65;0.47;;;6.20;99.90;;;;;;4948730;28;20019;-77
2022/04/27 03:57:39;;;;;;;0.30;0.30;;;6.20;99.90;;;;;;4942433;28;20032;-76
2022/04/27 04:00:06;;;;;;;0.30;0.30;;;6.10;99.90;;;;;;4950868;29;20023;-76
2022/04/27 04:02:32;;;;;;;0.10;0.10;;;6.10;99.90;;;;;;4940485;29;20036;-75
2022/04/27 04:04:57;;;;;;;0.30;0.30;;;6.10;99.90;;;;;;4945890;28;20467;-76
2022/04/27 04:07:23;;;;;;;0.80;0.22;;;6.00;99.90;;;;;;4952420;28;20765;-75
2022/04/27 04:09:48;;;;;;;0.13;0.13;;;6.00;99.90;;;;;;4953798;28;20023;-76
2022/04/27 04:12:14;;;;;;;0.10;0.10;;;6.10;99.90;;;;;;4950784;28;20023;-77
2022/04/27 04:14:40;;;;;;;0.10;0.10;;;6.10;99.90;;;;;;4953265;29;20031;-78
2022/04/27 04:17:06;;;;;;;0.60;0.60;;;6.00;99.90;;;;;;4942820;28;20028;-90
2022/04/27 04:19:34;;;;;;;6.18;0.95;;;6.00;99.90;;;;;;4942051;28;20426;-90
2022/04/27 04:22:00;;;;;;;0.10;0.10;;;6.00;99.90;;;;;;4943002;29;20039;-79
2022/04/27 04:24:26;;;;;;;0.15;0.15;;;6.10;99.90;;;;;;4949501;29;20027;-79
2022/04/27 04:29:36;;;;;;;0.08;0.08;;;6.10;99.90;;;;;;4946274;29;20035;-83
2022/04/27 04:32:02;;;;;;;0.30;0.30;;;6.10;99.90;;;;;;4948346;29;20019;-81
2022/04/27 04:34:27;;;;;;;0.40;0.40;;;6.10;99.90;;;;;;4948363;29;20394;-81
2022/04/27 04:36:53;;;;;;;0.30;0.30;;;6.20;99.90;;;;;;4951079;28;20020;-81
2022/04/27 04:39:18;;;;;;;0.32;0.32;;;6.20;99.90;;;;;;4947934;29;20445;-82
2022/04/27 04:41:44;;;;;;;1.48;0.77;;;6.20;99.90;;;;;;4947675;28;20050;-87
2022/04/27 04:44:09;;;;;;;0.88;0.65;;;6.30;99.90;;;;;;4941072;28;20028;-82
2022/04/27 04:46:35;;;;;;;0.13;0.13;;;6.40;99.90;;;;;;4946150;29;20521;-76
2022/04/27 04:49:00;;;;;;;0.47;0.38;;;6.40;99.90;;;;;;4947765;29;20030;-77
2022/04/27 04:51:26;;;;;;;0.38;0.38;;;6.60;99.90;;;;;;4948869;29;20038;-75
2022/04/27 04:53:52;;;;;;;0.82;0.82;;;6.70;99.90;;;;;;4952534;29;20564;-75
2022/04/27 04:56:17;;;;;;;0.40;0.30;;;6.80;99.90;;;;;;4950437;29;20089;-76
2022/04/27 04:58:42;;;;;;;0.00;0.00;;;7.00;99.90;;;;;;4947987;28;20082;-77
2022/04/27 05:01:08;;;;;;;0.25;0.25;;;7.00;99.90;;;;;;4949271;29;20019;-77
2022/04/27 05:03:36;;;;;;;0.22;0.22;;;7.20;99.90;;;;;;4948533;28;20050;-78
2022/04/27 05:06:03;;;;;;;0.08;0.08;;;7.20;99.90;;;;;;4942921;29;20059;-78
2022/04/27 05:08:28;;;;;;;0.35;0.35;;;7.40;99.90;;;;;;4948942;29;20019;-78
2022/04/27 05:10:54;;;;;;;0.95;0.90;;;7.50;99.90;;;;;;4939632;29;20525;-77
2022/04/27 05:13:19;;;;;;;0.65;0.55;;;7.50;99.90;;;;;;4950777;29;20030;-78
2022/04/27 05:15:45;;;;;;;0.43;0.43;;;7.50;99.90;;;;;;4944368;28;20390;-78
2022/04/27 05:18:10;;;;;;;0.20;0.20;;;7.60;99.90;;;;;;4950983;29;20082;-78
2022/04/27 05:20:38;;;;;;;1.27;0.63;;;7.70;99.90;;;;;;4947959;28;20429;-78
2022/04/27 05:23:04;;;;;;;1.38;0.75;;;7.80;99.90;;;;;;4949417;29;20031;-78
2022/04/27 05:25:30;;;;;;;0.40;0.40;;;7.80;99.90;;;;;;4952519;28;20030;-78
2022/04/27 05:27:56;;;;;;;0.20;0.15;;;8.00;99.90;;;;;;4945375;28;20390;-78
2022/04/27 05:33:05;;;;;;;0.45;0.45;;;8.20;99.90;;;;;;4946627;29;20041;-78
2022/04/27 05:35:30;;;;;;;0.50;0.50;;;8.30;99.90;;;;;;4952158;28;20078;-78
2022/04/27 05:37:56;;;;;;;0.00;0.00;;;8.50;99.90;;;;;;4944970;28;20534;-78
2022/04/27 05:40:22;;;;;;;0.20;0.20;;;8.60;99.90;;;;;;4947798;29;20153;-78
2022/04/27 05:42:48;;;;;;;0.45;0.45;;;8.70;99.90;;;;;;4945256;28;20510;-78
2022/04/27 05:45:14;;;;;;;0.65;0.65;;;8.90;99.90;;;;;;4950617;29;20034;-78
2022/04/27 05:47:40;;;;;;;0.90;0.55;;;8.90;99.90;;;;;;4947940;28;20141;-77
2022/04/27 05:50:06;;;;;;;0.40;0.40;;;9.10;99.90;;;;;;4942943;29;20032;-77
2022/04/27 05:52:49;;;;;;;0.10;0.10;;;9.20;99.90;;;;;;4949596;29;20070;-78
2022/04/27 05:55:15;;;;;;;0.95;0.90;;;9.20;99.90;;;;;;4949583;28;20031;-78
2022/04/27 05:57:40;;;;;;;1.45;0.70;;;9.30;99.90;;;;;;4950505;28;20544;-78
2022/04/27 06:00:06;;;;;;;0.05;0.05;;;9.30;99.90;;;;;;4947610;28;20497;-78
2022/04/27 06:02:32;;;;;;;0.30;0.30;;;9.40;99.90;;;;;;4950774;28;20394;-78
2022/04/27 06:04:57;;;;;;;0.60;0.38;;;9.40;99.90;;;;;;4947474;29;20050;-78
2022/04/27 06:07:25;;;;;;;0.10;0.10;;;9.40;99.90;;;;;;4947806;29;20027;-78
2022/04/27 06:09:50;;;;;;;0.10;0.10;;;9.40;99.90;;;;;;4944928;28;20034;-78
2022/04/27 06:12:15;;;;;;;1.08;1.00;;;9.60;99.90;;;;;;4949265;29;20031;-78
2022/04/27 06:14:41;;;;;;;0.40;0.40;;;9.60;99.90;;;;;;4943478;29;20027;-78
2022/04/27 06:17:08;;;;;;;0.45;0.30;;;9.70;99.90;;;;;;4941890;28;20034;-78
2022/04/27 06:19:33;;;;;;;1.33;1.25;;;9.70;99.90;;;;;;4946358;28;22007;-78
2022/04/27 06:21:59;;;;;;;2.30;0.95;;;9.80;98.70;;;;;;4951110;29;20027;-78
2022/04/27 06:24:26;;;;;;;0.22;0.22;;;9.80;98.60;;;;;;4949359;28;20314;-77
2022/04/27 06:26:53;;;;;;;0.20;0.20;;;9.80;98.20;;;;;;4944740;29;20030;-81
2022/04/27 06:29:19;;;;;;;0.38;0.35;;;9.90;98.20;;;;;;4943782;28;20106;-80
2022/04/27 06:31:45;;;;;;;0.22;0.22;;;9.90;97.10;;;;;;4950423;28;20110;-79
2022/04/27 06:34:11;;;;;;;0.40;0.40;;;10.00;96.40;;;;;;4949944;28;20390;-81
2022/04/27 06:36:38;;;;;;;1.45;0.77;;;10.10;96.00;;;;;;4948727;28;20038;-80
2022/04/27 06:39:07;;;;;;;1.95;0.57;;;10.10;96.00;;;;;;4933349;29;20478;-84
2022/04/27 06:41:32;;;;;;;0.43;0.43;;;10.20;97.50;;;;;;4939545;29;20047;-85
2022/04/27 06:43:58;;;;;;;0.25;0.25;;;10.20;97.00;;;;;;4943901;28;20032;-86
2022/04/27 06:46:23;;;;;;;0.00;0.00;;;10.30;95.80;;;;;;4946318;29;20607;-80
2022/04/27 06:48:49;;;;;;;0.77;0.77;;;10.40;95.40;;;;;;4936061;28;20042;-80
2022/04/27 06:51:15;;;;;;;1.98;0.75;;;10.50;95.00;;;;;;4945110;29;20054;-78
2022/04/27 06:53:40;;;;;;;0.20;0.20;;;10.60;94.20;;;;;;4949794;28;20557;-78
2022/04/27 06:56:06;;;;;;;0.43;0.43;;;10.70;93.70;;;;;;4948255;28;20043;-78
2022/04/27 06:58:31;;;;;;;0.85;0.43;;;10.80;91.80;;;;;;4947282;28;20031;-78
2022/04/27 07:00:58;;;;;;;0.30;0.30;;;10.90;90.00;;;;;;4945345;29;20095;-79
2022/04/27 07:03:23;;;;;;;2.58;0.47;;;10.90;89.20;;;;;;4949422;28;20032;-79
2022/04/27 07:05:49;;;;;;;0.20;0.17;;;11.00;88.50;;;;;;4946458;29;20082;-79
2022/04/27 07:08:14;;;;;;;0.08;0.08;;;11.00;89.80;;;;;;4942088;29;20062;-78
2022/04/27 07:10:40;;;;;;;0.10;0.10;;;11.10;89.90;;;;;;4940920;29;20066;-82
2022/04/27 07:13:05;;;;;;;1.27;0.55;;;11.20;86.80;;;;;;4942377;29;20031;-84
2022/04/27 07:15:32;;;;;;;0.25;0.25;;;11.30;86.60;;;;;;4942855;29;20046;-80
2022/04/27 07:17:57;;;;;;;0.75;0.75;;;11.40;87.00;;;;;;4943015;28;20042;-78
2022/04/27 07:20:23;;;;;;;0.40;0.40;;;11.40;86.00;;;;;;4946212;28;20398;-79
2022/04/27 07:22:48;;;;;;;0.20;0.20;;;11.50;84.70;;;;;;4948682;28;20031;-78
2022/04/27 07:25:15;;;;;;;0.10;0.10;;;11.70;83.60;;;;;;4954362;29;20115;-83
2022/04/27 07:27:40;;;;;;;1.00;0.65;;;11.70;86.10;;;;;;4949589;28;20035;-82
2022/04/27 07:30:07;;;;;;;0.90;0.40;;;11.80;85.00;;;;;;4953465;28;20031;-82
2022/04/27 07:32:32;;;;;;;6.93;0.47;;;11.90;84.10;;;;;;4947218;28;20031;-80
2022/04/27 07:34:58;;;;;;;0.47;0.47;;;12.00;81.70;;;;;;4953234;28;20028;-81
2022/04/27 07:37:23;;;;;;;0.13;0.13;;;12.10;84.10;;;;;;4948486;28;20027;-81
2022/04/27 07:39:49;;;;;;;0.10;0.10;;;12.20;81.30;;;;;;4948819;29;20030;-80
2022/04/27 07:42:15;;;;;;;0.55;0.45;;;12.30;80.40;;;;;;4947914;28;20032;-80
2022/04/27 07:44:41;;;;;;;0.80;0.63;;;12.30;80.00;;;;;;4950648;29;20157;-80
2022/04/27 07:47:07;;;;;;;0.45;0.32;;;12.40;78.40;;;;;;4949082;29;20054;-81
2022/04/27 07:49:34;;;;;;;0.20;0.20;;;12.40;80.00;;;;;;4952598;28;20027;-81
2022/04/27 07:51:59;;;;;;;3.75;0.43;;;12.60;80.00;;;;;;4953329;29;20027;-80
2022/04/27 07:54:24;;;;;;;0.50;0.50;;;12.70;77.20;;;;;;4952275;28;20042;-82
2022/04/27 07:56:50;;;;;;;0.77;0.55;;;12.80;74.50;;;;;;4951768;28;20114;-85
2022/04/27 07:59:15;;;;;;;1.35;1.08;;;12.90;73.50;;;;;;4953406;28;20035;-83
2022/04/27 08:01:41;;;;;;;1.33;0.65;;;13.00;72.00;;;;;;4946038;29;20455;-83
2022/04/27 08:04:06;;;;;;;1.55;0.22;;;13.00;72.90;;;;;;4948171;29;20026;-81
2022/04/27 08:06:32;;;;;;;0.32;0.32;;;13.20;72.00;;;;;;4951822;29;20398;-80
2022/04/27 08:08:58;;;;;;;0.03;0.03;;;13.20;70.50;;;;;;4940830;29;20035;-79
2022/04/27 08:11:23;;;;;;;0.28;0.17;;;13.30;69.40;;;;;;4943165;28;20489;-86
2022/04/27 08:13:48;;;;;;;0.30;0.30;;;13.50;68.90;;;;;;4948238;29;20031;-79
2022/04/27 08:16:14;;;;;;;0.20;0.20;;;13.50;65.40;;;;;;4949615;28;20049;-81
2022/04/27 08:18:40;;;;;;;0.00;0.00;;;13.40;62.90;;;;;;4948985;29;20408;-78
2022/04/27 08:21:15;;;;;;;0.15;0.15;;;13.40;64.30;;;;;;4952430;28;20115;-80
2022/04/27 08:23:45;;;;;;;2.83;0.20;;;13.50;67.90;;;;;;4951230;29;20066;-75
2022/04/27 08:26:12;;;;;;;0.10;0.10;;;13.50;67.00;;;;;;4951433;28;20060;-83
2022/04/27 08:28:38;;;;;;;1.48;0.30;;;13.60;69.60;;;;;;4948945;28;20062;-78
2022/04/27 08:31:05;;;;;;;0.22;0.20;;;13.70;68.00;;;;;;4949513;28;20237;-79
2022/04/27 08:33:31;;;;;;;0.43;0.43;;;13.90;67.60;;;;;;4952152;28;20055;-79
2022/04/27 08:36:00;;;;;;;0.00;0.00;;;14.00;64.30;;;;;;4952969;28;20047;-79
2022/04/27 08:38:26;;;;;;;0.20;0.20;;;14.00;61.30;;;;;;4950561;29;20525;-78
2022/04/27 08:40:52;;;;;;;0.52;0.43;;;14.00;60.40;;;;;;4947191;28;20040;-81
2022/04/27 08:43:17;;;;;;;0.03;0.03;;;14.10;61.70;;;;;;4944136;28;20394;-79
2022/04/27 08:45:44;;;;;;;0.10;0.10;;;14.10;62.20;;;;;;4943263;29;20438;-79
2022/04/27 08:48:14;;;;;;;0.10;0.10;;;14.00;61.60;;;;;;4950086;28;20034;-79
2022/04/27 08:50:40;;;;;;;0.93;0.30;;;14.00;62.50;;;;;;4951943;28;20169;-75
2022/04/27 08:53:06;;;;;;;0.00;0.00;;;14.00;63.50;;;;;;4947832;28;20364;-76
2022/04/27 08:55:32;;;;;;;0.03;0.03;;;14.10;61.70;;;;;;4940310;29;20098;-80
2022/04/27 08:58:08;;;;;;;0.03;0.03;;;14.10;60.20;;;;;;4948454;29;20534;-81
2022/04/27 09:00:34;;;;;;;0.13;0.13;;;14.20;60.10;;;;;;4945729;28;20090;-80
2022/04/27 09:03:32;;;;;;;0.05;0.05;;;14.30;58.40;;;;;;4944325;29;20126;-80
2022/04/27 09:05:59;;;;;;;0.30;0.30;;;14.60;59.60;;;;;;4949184;29;20315;-80
2022/04/27 09:08:46;;;;;;;0.10;0.10;;;14.50;57.20;;;;;;4945799;28;20135;-79
2022/04/27 09:11:18;;;;;;;0.00;0.00;;;14.30;58.90;;;;;;4937310;28;20035;-84
2022/04/27 09:13:46;;;;;;;0.10;0.10;;;14.10;57.40;;;;;;4944677;28;20035;-85
2022/04/27 09:16:12;;;;;;;0.70;0.65;;;14.20;56.20;;;;;;4943963;28;20525;-88
2022/04/27 09:21:58;;;;;;;0.10;0.10;;;14.50;55.20;;;;;;4943683;29;20034;-83
2022/04/27 09:24:24;;;;;;;0.00;0.00;;;14.60;56.10;;;;;;4943074;28;20522;-84
2022/04/27 09:27:13;;;;;;;0.03;0.03;;;14.80;55.50;;;;;;4946331;28;20437;-85
2022/04/27 09:29:38;;;;;;;1.55;0.57;;;15.20;54.00;;;;;;4930185;29;20395;-86
2022/04/27 09:32:06;;;;;;;0.20;0.20;;;15.40;54.00;;;;;;4949107;29;20027;-83
2022/04/27 09:34:44;;;;;;;0.32;0.22;;;15.60;52.90;;;;;;4949290;28;20386;-85
2022/04/27 09:37:17;;;;;;;0.00;0.00;;;15.60;52.50;;;;;;4940257;28;20027;-85
2022/04/27 09:39:45;;;;;;;2.25;0.47;;;15.40;54.50;;;;;;4941985;28;20035;-87
2022/04/27 09:42:10;;;;;;;0.00;0.00;;;15.40;54.90;;;;;;4943326;28;20190;-84
2022/04/27 09:44:38;;;;;;;0.00;0.00;;;15.60;55.00;;;;;;4950145;28;20549;-81
2022/04/27 09:47:06;;;;;;;0.10;0.10;;;15.60;53.20;;;;;;4935968;28;20034;-86
2022/04/27 09:49:34;;;;;;;0.20;0.20;;;15.70;53.50;;;;;;4941310;29;20028;-82
2022/04/27 09:52:01;;;;;;;0.00;0.00;;;15.80;53.90;;;;;;4951983;28;20035;-88
2022/04/27 09:54:28;;;;;;;0.15;0.15;;;16.00;51.90;;;;;;4943387;28;20028;-88
2022/04/27 09:56:56;;;;;;;0.77;0.57;;;16.10;51.10;;;;;;4949787;29;20038;-87
2022/04/27 09:59:32;;;;;;;0.13;0.13;;;16.30;51.90;;;;;;4953907;28;20065;-87
2022/04/27 10:02:23;;;;;;;0.30;0.30;;;16.50;51.50;;;;;;4952852;29;20074;-88
2022/04/27 10:04:51;;;;;;;0.35;0.35;;;16.80;51.40;;;;;;4940239;28;71059;-88
2022/04/27 10:07:21;;;;;;;0.10;0.10;;;17.10;51.40;;;;;;4948038;29;20485;-88
2022/04/27 10:09:49;;;;;;;5.28;0.95;;;17.30;49.80;;;;;;4951082;28;20034;-89
2022/04/27 10:12:15;;;;;;;0.52;0.35;;;17.30;48.40;;;;;;4953327;28;20019;-86
2022/04/27 10:14:42;;;;;;;0.73;0.30;;;17.70;49.90;;;;;;4950990;28;20023;-88
2022/04/27 10:17:07;;;;;;;0.00;0.00;;;17.80;51.30;;;;;;4946337;28;20090;-88
2022/04/27 10:19:33;;;;;;;0.00;0.00;;;17.90;48.20;;;;;;4949865;29;20023;-87
2022/04/27 10:21:59;;;;;;;0.60;0.55;;;17.90;47.30;;;;;;4948222;28;20171;-87
2022/04/27 10:24:34;;;;;;;0.08;0.08;;;17.80;48.50;;;;;;4948931;28;20042;-86
2022/04/27 10:27:20;;;;;;;0.43;0.38;;;17.80;48.80;;;;;;4951011;29;20066;-87
2022/04/27 10:30:01;;;;;;;0.35;0.17;;;17.50;47.30;;;;;;4948543;29;20027;-87
2022/04/27 10:32:48;;;;;;;0.32;0.32;;;17.30;48.50;;;;;;4948585;28;20051;-87
2022/04/27 10:35:17;;;;;;;0.30;0.30;;;17.40;48.90;;;;;;4944090;29;20042;-86
2022/04/27 10:37:44;;;;;;;0.00;0.00;;;17.70;49.00;;;;;;4950590;28;20056;-86
2022/04/27 10:40:31;;;;;;;0.10;0.10;;;18.30;50.10;;;;;;4949863;29;20075;-87
2022/04/27 10:43:14;;;;;;;0.10;0.10;;;18.40;48.20;;;;;;4944179;28;20035;-87
2022/04/27 10:45:42;;;;;;;0.00;0.00;;;17.90;47.10;;;;;;4947305;29;20534;-88
2022/04/27 10:48:24;;;;;;;0.10;0.10;;;17.60;48.60;;;;;;4942679;29;20035;-84
2022/04/27 10:51:04;;;;;;;0.10;0.10;;;17.90;49.40;;;;;;4949995;29;20032;-86
2022/04/27 10:53:40;;;;;;;3.35;0.55;;;18.40;48.10;;;;;;4939380;28;20110;-86
2022/04/27 10:56:24;;;;;;;0.10;0.10;;;19.20;45.70;;;;;;4944324;28;20034;-85
2022/04/27 10:58:51;;;;;;;0.00;0.00;;;19.60;45.60;;;;;;4937633;29;20024;-84
2022/04/27 11:01:27;;;;;;;0.47;0.43;;;20.00;44.20;;;;;;4943912;29;20032;-87
2022/04/27 11:03:54;;;;;;;0.85;0.63;;;20.10;43.70;;;;;;4940269;29;20035;-88
2022/04/27 11:06:21;;;;;;;0.65;0.30;;;19.60;42.80;;;;;;4943948;28;20066;-86
2022/04/27 11:09:12;;;;;;;0.75;0.52;;;19.10;41.80;;;;;;4944560;29;20067;-85
2022/04/27 11:11:51;;;;;;;0.10;0.10;;;18.70;43.20;;;;;;4940472;28;20027;-86
2022/04/27 11:14:26;;;;;;;0.00;0.00;;;18.80;45.30;;;;;;4935424;29;20275;-86
2022/04/27 11:16:52;;;;;;;0.20;0.20;;;18.60;45.90;;;;;;4934954;29;20039;-85
2022/04/27 11:19:17;;;;;;;1.00;0.45;;;18.20;45.20;;;;;;4936504;29;20036;-87
2022/04/27 11:21:43;;;;;;;0.45;0.45;;;18.00;46.30;;;;;;4942885;29;20055;-86
2022/04/27 11:24:11;;;;;;;0.30;0.30;;;17.90;45.50;;;;;;4939689;29;20686;-85
2022/04/27 11:26:44;;;;;;;1.55;0.30;;;17.70;44.80;;;;;;4939109;29;20042;-87
2022/04/27 11:29:11;;;;;;;0.38;0.20;;;18.30;44.50;;;;;;4935780;28;20024;-88
2022/04/27 11:31:37;;;;;;;0.10;0.10;;;19.30;41.90;;;;;;4949457;28;20074;-88
2022/04/27 11:34:23;;;;;;;0.30;0.22;;;20.40;46.60;;;;;;4935868;28;20024;-86
2022/04/27 11:36:53;;;;;;;0.82;0.63;;;20.60;41.80;;;;;;4944356;29;20059;-86
2022/04/27 11:39:21;;;;;;;0.00;0.00;;;20.10;42.60;;;;;;4947057;29;20582;-88
2022/04/27 11:41:46;;;;;;;0.22;0.22;;;19.50;45.50;;;;;;4941183;28;20086;-87
2022/04/27 11:44:21;;;;;;;0.10;0.10;;;19.00;46.00;;;;;;4940098;28;20026;-88
2022/04/27 11:46:47;;;;;;;0.03;0.03;;;18.90;47.00;;;;;;4941810;28;20039;-88
2022/04/27 11:49:12;;;;;;;0.45;0.45;;;19.10;47.80;;;;;;4933219;29;20027;-85
2022/04/27 11:51:38;;;;;;;0.13;0.08;;;19.40;47.00;;;;;;4941120;28;20600;-86
2022/04/27 11:54:03;;;;;;;0.00;0.00;;;20.00;46.60;;;;;;4942984;29;20047;-88
2022/04/27 11:56:41;;;;;;;0.77;0.45;;;20.50;46.30;;;;;;4943845;29;20023;-86
2022/04/27 11:59:07;;;;;;;0.20;0.10;;;21.70;45.30;;;;;;4940107;29;20027;-87
2022/04/27 12:01:34;;;;;;;0.32;0.28;;;22.50;42.80;;;;;;4946305;28;20035;-85
2022/04/27 12:04:00;;;;;;;0.10;0.10;;;23.30;42.50;;;;;;4949743;28;20103;-86
2022/04/27 12:06:26;;;;;;;0.00;0.00;;;24.30;39.50;;;;;;4935513;29;20048;-84
2022/04/27 12:08:52;;;;;;;0.10;0.10;;;24.70;37.30;;;;;;4949625;28;20054;-86
2022/04/27 12:11:24;;;;;;;0.10;0.10;;;23.80;36.20;;;;;;4944700;28;20059;-87
2022/04/27 12:13:51;;;;;;;0.75;0.68;;;23.00;36.40;;;;;;4935851;29;20118;-86
2022/04/27 12:16:17;;;;;;;0.38;0.38;;;22.10;38.10;;;;;;4949013;29;20429;-87
2022/04/27 12:18:54;;;;;;;0.52;0.28;;;21.40;39.20;;;;;;4950225;29;20039;-87
2022/04/27 12:21:24;;;;;;;0.10;0.10;;;21.00;40.00;;;;;;4940237;29;20067;-88
2022/04/27 12:23:51;;;;;;;0.30;0.30;;;20.90;41.10;;;;;;4948031;28;20035;-87
2022/04/27 12:26:17;;;;;;;0.10;0.10;;;21.10;40.50;;;;;;4960122;28;20110;-87
2022/04/27 12:28:46;;;;;;;0.15;0.15;;;21.70;37.80;;;;;;4946993;29;20123;-86
2022/04/27 12:31:13;;;;;;;0.30;0.30;;;22.20;39.20;;;;;;4948561;28;20020;-87
2022/04/27 12:33:43;;;;;;;0.10;0.10;;;21.90;37.40;;;;;;4950024;29;20118;-88
2022/04/27 12:39:09;;;;;;;0.20;0.20;;;20.90;40.30;;;;;;4959351;28;20538;-88
2022/04/27 12:41:41;;;;;;;0.17;0.08;;;20.30;41.20;;;;;;4945988;29;20477;-85
2022/04/27 12:44:08;;;;;;;0.40;0.40;;;20.10;41.90;;;;;;4948894;28;20024;-88
2022/04/27 12:46:34;;;;;;;0.00;0.00;;;19.80;41.30;;;;;;4957740;28;20078;-89
2022/04/27 12:49:05;;;;;;;0.22;0.20;;;20.50;41.90;;;;;;4943778;29;20442;-87
2022/04/27 12:51:33;;;;;;;;;;;21.10;41.10;;;;;;4962341;28;20051;-89
2022/04/27 12:54:02;;;;;;;0.55;0.38;;;21.50;39.70;;;;;;4961126;28;19914;-87
2022/04/27 12:56:35;;;;;;;0.38;0.38;;;23.10;37.20;;;;;;4957313;28;20038;-86
2022/04/27 12:59:06;;;;;;;0.28;0.20;;;24.30;34.70;;;;;;4957901;29;20118;-87
2022/04/27 13:01:32;;;;;;;0.03;0.03;;;23.10;36.10;;;;;;4947447;29;20027;-86
2022/04/27 13:03:58;;;;;;;2.20;0.85;;;21.80;36.90;;;;;;4959471;28;20034;-87
2022/04/27 13:06:24;;;;;;;0.52;0.52;;;21.00;38.90;;;;;;4944749;28;20036;-87
2022/04/27 13:08:50;;;;;;;0.30;0.25;;;20.60;38.90;;;;;;4964581;28;20122;-87
2022/04/27 13:14:16;;;;;;;0.15;0.15;;;19.80;41.40;;;;;;4964826;29;20119;-87